Terminal Aerodrome Forecast
Issued by NWS

Home | Current Version | Previous Version | Text Only | Print | Product List | Glossary On
Versions: 1 2 3 4 5 6 7 8 9 10 11 12 13 14 15 16 17 18 19 20 21
186
FTUS42 KMHX 221740
TAFISO
TAF
KISO 221740Z 2218/2318 VRB05KT P6SM OVC007
     FM230100 09010KT 4SM SHRA VCTS OVC007CB
     FM230700 11010KT P6SM BKN007
     FM231200 22009KT P6SM SCT015 BKN080
     FM231700 21009KT P6SM VCSH SCT025 BKN040
      AMD LTD TO CLD VIS AND WIND=

USA.gov is the U.S. government's official web portal to all federal, state and local government web resources and services.